Knotts Island, North Carolina
Current Conditions -  °F | °C
As of 10:35 AM on Monday 22 Dec 2014 (Local Time) from KONX Reporting Station
Light Rain Light Rain  
Wind Chill: 43°   Ceiling: 500
Heat Index: 48°   Visibility: 4mi
Dew Point: 47°   Wind: 14mph
Humidity: 93%   Direction: 40°NE
Pressure: 30.14"   Gusts: 25mph
Location:  36.51°N, 75.92°W
Report Text: KONX 221535Z AUTO 04012G22KT 4SM -RA OVC005 09/08 A3014 RMK AO2 P0011 T00910081
Loading
Personal Weather Stations






























Interactive Weather Map New forecast layout! Learn more

10-Day Weather Forecast

Advertisements
Track Severe Weather on mobile